sensor_id;sensor_type;location;lat;lon;timestamp;P1;durP1;ratioP1;P2;durP2;ratioP2
29254;SDS011;16277;48.890;2.306;2023-04-07T00:07:02;10.57;;;4.63;;
29254;SDS011;16277;48.890;2.306;2023-04-07T00:22:06;9.70;;;4.17;;
29254;SDS011;16277;48.890;2.306;2023-04-07T00:37:10;7.60;;;4.27;;
29254;SDS011;16277;48.890;2.306;2023-04-07T00:52:15;13.87;;;4.43;;
29254;SDS011;16277;48.890;2.306;2023-04-07T01:07:22;14.73;;;5.37;;
29254;SDS011;16277;48.890;2.306;2023-04-07T01:22:42;20.90;;;4.43;;
29254;SDS011;16277;48.890;2.306;2023-04-07T01:37:50;14.93;;;4.43;;
29254;SDS011;16277;48.890;2.306;2023-04-07T01:52:56;13.50;;;4.60;;
29254;SDS011;16277;48.890;2.306;2023-04-07T02:08:01;22.63;;;6.30;;
29254;SDS011;16277;48.890;2.306;2023-04-07T02:23:11;17.50;;;4.17;;
29254;SDS011;16277;48.890;2.306;2023-04-07T02:38:16;17.60;;;4.97;;
29254;SDS011;16277;48.890;2.306;2023-04-07T02:53:21;24.17;;;5.53;;
29254;SDS011;16277;48.890;2.306;2023-04-07T03:08:25;15.53;;;5.27;;
29254;SDS011;16277;48.890;2.306;2023-04-07T03:23:31;29.37;;;6.13;;
29254;SDS011;16277;48.890;2.306;2023-04-07T03:38:35;19.80;;;5.50;;
29254;SDS011;16277;48.890;2.306;2023-04-07T03:53:40;22.17;;;5.73;;
29254;SDS011;16277;48.890;2.306;2023-04-07T04:08:57;10.50;;;4.47;;
29254;SDS011;16277;48.890;2.306;2023-04-07T04:24:02;23.80;;;5.37;;
29254;SDS011;16277;48.890;2.306;2023-04-07T04:39:06;14.33;;;5.27;;
29254;SDS011;16277;48.890;2.306;2023-04-07T04:54:13;9.57;;;4.67;;
29254;SDS011;16277;48.890;2.306;2023-04-07T05:09:20;10.87;;;5.53;;
29254;SDS011;16277;48.890;2.306;2023-04-07T05:24:25;11.13;;;5.47;;
29254;SDS011;16277;48.890;2.306;2023-04-07T05:39:34;30.57;;;6.17;;
29254;SDS011;16277;48.890;2.306;2023-04-07T05:54:43;20.63;;;7.00;;
29254;SDS011;16277;48.890;2.306;2023-04-07T06:09:50;25.50;;;5.70;;
29254;SDS011;16277;48.890;2.306;2023-04-07T06:24:54;17.87;;;6.17;;
29254;SDS011;16277;48.890;2.306;2023-04-07T06:39:59;14.73;;;5.90;;
29254;SDS011;16277;48.890;2.306;2023-04-07T06:55:04;16.70;;;9.27;;
29254;SDS011;16277;48.890;2.306;2023-04-07T07:10:09;26.33;;;8.40;;
29254;SDS011;16277;48.890;2.306;2023-04-07T07:25:14;17.87;;;8.43;;
29254;SDS011;16277;48.890;2.306;2023-04-07T07:40:18;18.63;;;9.30;;
29254;SDS011;16277;48.890;2.306;2023-04-07T07:55:23;24.80;;;8.13;;
29254;SDS011;16277;48.890;2.306;2023-04-07T08:10:28;26.17;;;9.47;;
29254;SDS011;16277;48.890;2.306;2023-04-07T08:25:33;17.00;;;8.70;;
29254;SDS011;16277;48.890;2.306;2023-04-07T08:40:38;23.43;;;9.03;;
29254;SDS011;16277;48.890;2.306;2023-04-07T08:55:42;18.90;;;8.27;;
29254;SDS011;16277;48.890;2.306;2023-04-07T09:10:47;30.00;;;8.57;;
29254;SDS011;16277;48.890;2.306;2023-04-07T09:25:51;91.37;;;17.00;;
29254;SDS011;16277;48.890;2.306;2023-04-07T09:40:57;12.90;;;7.63;;
29254;SDS011;16277;48.890;2.306;2023-04-07T09:56:09;21.27;;;6.30;;
29254;SDS011;16277;48.890;2.306;2023-04-07T10:11:14;8.20;;;4.27;;
29254;SDS011;16277;48.890;2.306;2023-04-07T10:26:20;5.87;;;3.93;;
29254;SDS011;16277;48.890;2.306;2023-04-07T10:41:32;10.57;;;4.77;;
29254;SDS011;16277;48.890;2.306;2023-04-07T11:12:22;9.50;;;3.70;;
29254;SDS011;16277;48.890;2.306;2023-04-07T11:27:26;4.87;;;3.27;;
29254;SDS011;16277;48.890;2.306;2023-04-07T11:42:33;7.97;;;2.27;;
29254;SDS011;16277;48.890;2.306;2023-04-07T11:57:38;3.67;;;2.30;;
29254;SDS011;16277;48.890;2.306;2023-04-07T12:12:43;14.70;;;3.50;;
29254;SDS011;16277;48.890;2.306;2023-04-07T12:27:49;11.63;;;4.00;;
29254;SDS011;16277;48.890;2.306;2023-04-07T12:42:53;19.60;;;2.47;;
29254;SDS011;16277;48.890;2.306;2023-04-07T12:57:59;4.27;;;2.03;;
29254;SDS011;16277;48.890;2.306;2023-04-07T13:13:04;3.23;;;1.73;;
29254;SDS011;16277;48.890;2.306;2023-04-07T13:28:09;11.03;;;2.67;;
29254;SDS011;16277;48.890;2.306;2023-04-07T13:43:13;4.30;;;2.13;;
29254;SDS011;16277;48.890;2.306;2023-04-07T13:58:20;8.60;;;2.00;;
29254;SDS011;16277;48.890;2.306;2023-04-07T14:13:24;5.00;;;2.47;;
29254;SDS011;16277;48.890;2.306;2023-04-07T14:28:29;1.37;;;1.33;;
29254;SDS011;16277;48.890;2.306;2023-04-07T14:43:33;2.83;;;1.37;;
29254;SDS011;16277;48.890;2.306;2023-04-07T14:58:38;10.73;;;1.30;;
29254;SDS011;16277;48.890;2.306;2023-04-07T15:13:43;2.63;;;2.10;;
29254;SDS011;16277;48.890;2.306;2023-04-07T15:28:48;2.20;;;2.10;;
29254;SDS011;16277;48.890;2.306;2023-04-07T15:43:52;5.00;;;1.80;;
29254;SDS011;16277;48.890;2.306;2023-04-07T15:58:57;9.17;;;1.63;;
29254;SDS011;16277;48.890;2.306;2023-04-07T16:14:01;5.67;;;1.43;;
29254;SDS011;16277;48.890;2.306;2023-04-07T16:29:06;2.00;;;1.73;;
29254;SDS011;16277;48.890;2.306;2023-04-07T16:44:10;13.47;;;9.60;;
29254;SDS011;16277;48.890;2.306;2023-04-07T16:59:15;14.10;;;13.40;;
29254;SDS011;16277;48.890;2.306;2023-04-07T17:14:20;26.73;;;22.23;;
29254;SDS011;16277;48.890;2.306;2023-04-07T17:29:25;12.10;;;6.00;;
29254;SDS011;16277;48.890;2.306;2023-04-07T17:44:30;1.17;;;0.83;;
29254;SDS011;16277;48.890;2.306;2023-04-07T17:59:35;1.00;;;0.90;;
29254;SDS011;16277;48.890;2.306;2023-04-07T18:14:40;2.40;;;2.20;;
29254;SDS011;16277;48.890;2.306;2023-04-07T18:29:44;2.17;;;2.07;;
29254;SDS011;16277;48.890;2.306;2023-04-07T18:44:49;3.20;;;3.00;;
29254;SDS011;16277;48.890;2.306;2023-04-07T18:59:53;2.10;;;2.00;;
29254;SDS011;16277;48.890;2.306;2023-04-07T19:14:58;2.90;;;2.80;;
29254;SDS011;16277;48.890;2.306;2023-04-07T19:30:03;2.10;;;2.00;;
29254;SDS011;16277;48.890;2.306;2023-04-07T19:45:09;1.60;;;1.50;;
29254;SDS011;16277;48.890;2.306;2023-04-07T20:00:14;2.57;;;2.40;;
29254;SDS011;16277;48.890;2.306;2023-04-07T20:15:22;5.80;;;2.87;;
29254;SDS011;16277;48.890;2.306;2023-04-07T20:30:27;2.77;;;2.60;;
29254;SDS011;16277;48.890;2.306;2023-04-07T20:45:32;7.73;;;7.27;;
29254;SDS011;16277;48.890;2.306;2023-04-07T21:00:41;5.07;;;4.67;;
29254;SDS011;16277;48.890;2.306;2023-04-07T21:15:46;2.80;;;2.70;;
29254;SDS011;16277;48.890;2.306;2023-04-07T21:30:51;3.90;;;2.73;;
29254;SDS011;16277;48.890;2.306;2023-04-07T21:45:57;5.77;;;3.40;;
29254;SDS011;16277;48.890;2.306;2023-04-07T22:01:02;11.73;;;3.40;;
29254;SDS011;16277;48.890;2.306;2023-04-07T22:16:06;5.60;;;2.10;;
29254;SDS011;16277;48.890;2.306;2023-04-07T22:31:11;4.27;;;3.13;;
29254;SDS011;16277;48.890;2.306;2023-04-07T22:46:16;4.93;;;3.33;;
29254;SDS011;16277;48.890;2.306;2023-04-07T23:01:20;3.87;;;3.23;;
29254;SDS011;16277;48.890;2.306;2023-04-07T23:16:25;5.60;;;3.53;;
29254;SDS011;16277;48.890;2.306;2023-04-07T23:31:29;4.43;;;3.60;;
29254;SDS011;16277;48.890;2.306;2023-04-07T23:46:37;4.93;;;3.53;;
